Time;durP1;ratioP1;P1;durP2;ratioP2;P2;SDS_P1;SDS_P2;PMS_P1;PMS_P2;Temp;Humidity;BMP_temperature;BMP_pressure;BME280_temperature;BME280_humidity;BME280_pressure;Samples;Min_cycle;Max_cycle;Signal;HPM_P1;HPM_P2
2022/05/19 00:01:54;;;;;;;4.88;3.05;;;;;;;17.58;62.03;96070.38;5033379;28;20197;-78
2022/05/19 00:04:20;;;;;;;4.78;3.08;;;;;;;17.44;62.34;96064.94;5034725;28;20213;-78
2022/05/19 00:06:45;;;;;;;4.90;2.97;;;;;;;17.53;62.34;96068.31;5031807;28;20297;-77
2022/05/19 00:09:11;;;;;;;4.25;2.80;;;;;;;17.49;62.26;96062.59;5034698;28;20174;-77
2022/05/19 00:11:37;;;;;;;6.00;3.03;;;;;;;17.50;62.10;96052.91;5005713;28;20186;-77
2022/05/19 00:14:02;;;;;;;2.92;2.70;;;;;;;17.38;62.65;96049.06;4998862;28;20186;-77
2022/05/19 00:16:28;;;;;;;4.53;3.22;;;;;;;17.35;63.24;96049.44;5002014;28;20239;-77
2022/05/19 00:18:53;;;;;;;4.43;2.80;;;;;;;17.34;63.33;96048.63;5030406;28;20198;-77
2022/05/19 00:21:19;;;;;;;3.38;2.97;;;;;;;17.25;63.68;96042.63;5016437;28;20178;-78
2022/05/19 00:23:44;;;;;;;4.72;3.10;;;;;;;17.25;63.83;96049.69;5032195;28;20232;-77
2022/05/19 00:26:09;;;;;;;3.72;3.33;;;;;;;17.18;64.79;96049.56;5034733;28;20242;-77
2022/05/19 00:28:35;;;;;;;5.72;3.50;;;;;;;17.15;64.77;96033.38;5017083;28;20219;-78
2022/05/19 00:31:00;;;;;;;3.92;3.50;;;;;;;17.06;65.69;96035.25;5013490;28;20194;-77
2022/05/19 00:33:26;;;;;;;5.43;3.55;;;;;;;17.14;65.71;96036.97;5012351;28;20194;-76
2022/05/19 00:35:51;;;;;;;4.60;3.15;;;;;;;17.20;65.25;96034.44;5010235;28;20261;-77
2022/05/19 00:38:16;;;;;;;5.40;3.50;;;;;;;17.13;65.50;96030.06;5007431;28;20759;-77
2022/05/19 00:40:48;;;;;;;3.60;3.00;;;;;;;17.17;65.32;96026.94;5012813;28;20559;-77
2022/05/19 00:43:13;;;;;;;3.55;3.17;;;;;;;17.04;65.59;96031.13;5012192;28;20242;-78
2022/05/19 00:45:49;;;;;;;4.63;3.25;;;;;;;17.10;65.65;96025.19;5011124;28;20685;-77
2022/05/19 00:48:18;;;;;;;6.15;3.30;;;;;;;17.13;65.69;96032.69;4993104;28;20210;-77
2022/05/19 00:50:50;;;;;;;3.15;2.92;;;;;;;17.13;65.92;96028.28;5013909;28;20179;-76
2022/05/19 00:53:35;;;;;;;4.50;3.58;;;;;;;17.05;66.08;96023.13;5031535;28;20684;-78
2022/05/19 00:56:08;;;;;;;6.32;3.10;;;;;;;17.11;65.96;96021.56;5014372;28;20202;-77
2022/05/19 00:58:38;;;;;;;8.02;3.60;;;;;;;17.04;65.94;96021.47;5027527;28;20268;-77
2022/05/19 01:01:03;;;;;;;4.25;3.05;;;;;;;16.94;66.17;96019.06;5010074;28;20175;-77
2022/05/19 01:03:42;;;;;;;3.88;3.28;;;;;;;16.92;66.50;96023.69;5001680;28;20175;-76
2022/05/19 01:06:12;;;;;;;4.18;3.70;;;;;;;17.00;66.13;96017.56;4997375;28;20206;-76
2022/05/19 01:08:59;;;;;;;3.65;3.35;;;;;;;16.88;66.66;96024.22;5017409;28;20176;-78
2022/05/19 01:11:25;;;;;;;5.22;3.47;;;;;;;16.94;66.12;96026.94;5016824;28;20750;-76
2022/05/19 01:13:51;;;;;;;5.93;3.40;;;;;;;16.87;66.43;96022.56;5014664;28;20210;-77
2022/05/19 01:16:16;;;;;;;3.88;3.45;;;;;;;16.84;66.74;96012.44;5017533;28;20567;-77
2022/05/19 01:18:42;;;;;;;3.88;3.47;;;;;;;16.77;66.81;96022.00;5022105;28;20207;-78
2022/05/19 01:21:09;;;;;;;4.13;3.20;;;;;;;16.86;66.42;96013.88;5018867;28;20623;-77
2022/05/19 01:23:55;;;;;;;4.93;3.58;;;;;;;16.85;66.02;96016.69;5015936;28;20183;-77
2022/05/19 01:26:41;;;;;;;3.28;2.97;;;;;;;16.70;66.33;96011.41;5014263;28;20215;-77
2022/05/19 01:29:07;;;;;;;5.05;2.88;;;;;;;16.73;66.20;96008.41;5029004;28;20218;-77
2022/05/19 01:32:06;;;;;;;8.13;3.55;;;;;;;16.66;66.42;96008.25;5040791;28;20178;-76
2022/05/19 01:34:33;;;;;;;3.85;3.50;;;;;;;16.64;66.37;96009.44;4994443;28;20187;-77
2022/05/19 01:36:59;;;;;;;3.55;3.10;;;;;;;16.66;66.37;96010.88;5024022;28;20242;-76
2022/05/19 01:39:27;;;;;;;3.53;2.95;;;;;;;16.55;66.37;96010.47;5006965;28;20743;-77
2022/05/19 01:42:18;;;;;;;3.78;3.03;;;;;;;16.59;66.19;96012.56;5016945;28;20179;-78
2022/05/19 01:45:25;;;;;;;5.45;3.78;;;;;;;16.59;65.89;96011.75;5014263;28;20194;-77
2022/05/19 01:48:05;;;;;;;4.13;3.38;;;;;;;16.57;65.64;96004.06;5001854;28;20178;-78
2022/05/19 01:50:44;;;;;;;4.82;3.20;;;;;;;16.51;65.81;95999.50;4998030;28;20560;-77
2022/05/19 01:53:36;;;;;;;5.70;2.75;;;;;;;16.59;65.36;96007.31;5010895;28;20762;-77
2022/05/19 01:56:26;;;;;;;3.53;2.88;;;;;;;16.57;65.28;96003.25;4996180;28;20214;-78
2022/05/19 01:59:01;;;;;;;3.10;2.80;;;;;;;16.55;65.40;96006.03;5004017;28;20211;-77
2022/05/19 02:01:27;;;;;;;4.03;3.08;;;;;;;16.58;65.31;96005.69;5025201;28;20182;-77
2022/05/19 02:04:04;;;;;;;4.95;3.13;;;;;;;16.52;65.39;96000.31;5034254;28;20218;-77
2022/05/19 02:06:32;;;;;;;3.17;2.97;;;;;;;16.47;65.39;96002.66;5020054;28;20218;-76
2022/05/19 02:09:06;;;;;;;2.83;2.55;;;;;;;16.52;64.81;96002.94;5015799;28;20277;-77
2022/05/19 02:11:36;;;;;;;5.13;2.83;;;;;;;16.48;65.27;95999.84;5028111;28;20617;-78
2022/05/19 02:14:12;;;;;;;3.00;2.70;;;;;;;16.58;64.77;95989.97;5035303;28;20206;-77
2022/05/19 02:16:37;;;;;;;6.03;3.13;;;;;;;16.55;64.48;95992.94;5025795;28;20211;-77
2022/05/19 02:19:03;;;;;;;4.85;3.03;;;;;;;16.53;64.40;95994.91;5002772;28;20215;-77
2022/05/19 02:21:28;;;;;;;3.23;2.90;;;;;;;16.52;64.14;95992.44;5028515;28;20183;-77
2022/05/19 02:24:01;;;;;;;4.25;2.65;;;;;;;16.44;64.00;95990.72;5017469;28;20249;-77
2022/05/19 02:26:34;;;;;;;5.10;2.50;;;;;;;16.33;64.48;95991.91;5015894;28;20214;-77
2022/05/19 02:29:05;;;;;;;3.42;2.80;;;;;;;16.43;64.37;96005.63;5034302;28;20250;-76
2022/05/19 02:31:30;;;;;;;5.15;2.60;;;;;;;16.30;64.90;96001.91;5012866;28;20175;-77
2022/05/19 02:33:55;;;;;;;3.80;2.53;;;;;;;16.38;64.52;96005.31;5002530;28;20190;-77
2022/05/19 02:36:21;;;;;;;4.07;2.90;;;;;;;16.37;64.97;95997.63;5004981;28;20203;-78
2022/05/19 02:38:46;;;;;;;3.47;2.37;;;;;;;16.43;64.94;95996.91;5022654;28;20203;-76
2022/05/19 02:41:11;;;;;;;5.65;3.20;;;;;;;16.36;64.90;95996.81;5004614;28;20187;-78
2022/05/19 02:43:37;;;;;;;4.30;2.80;;;;;;;16.37;65.22;95997.63;4997578;28;20215;-77
2022/05/19 02:46:02;;;;;;;4.03;2.90;;;;;;;16.37;64.45;95997.63;5003790;28;20203;-77
2022/05/19 02:48:28;;;;;;;3.30;3.00;;;;;;;16.41;64.63;96004.16;5009602;28;20182;-77
2022/05/19 02:50:53;;;;;;;5.28;3.10;;;;;;;16.35;64.42;96008.28;5020095;28;20186;-78
2022/05/19 02:53:19;;;;;;;4.15;2.97;;;;;;;16.37;64.33;96000.25;5037229;28;20206;-76
2022/05/19 02:55:44;;;;;;;3.30;2.75;;;;;;;16.26;64.36;96000.66;5032697;28;20270;-76
2022/05/19 02:58:11;;;;;;;3.53;2.47;;;;;;;16.25;64.45;95991.94;5019524;28;20234;-77
2022/05/19 03:00:36;;;;;;;3.08;2.78;;;;;;;16.26;64.46;95996.22;5028949;28;20218;-75
2022/05/19 03:03:02;;;;;;;5.28;2.88;;;;;;;16.17;64.67;95988.53;5051095;28;20183;-76
2022/05/19 03:05:30;;;;;;;4.53;2.93;;;;;;;16.25;64.45;95985.88;5035047;28;20182;-77
2022/05/19 03:07:56;;;;;;;3.43;2.87;;;;;;;16.26;63.83;95984.94;5051618;28;20178;-77
2022/05/19 03:10:22;;;;;;;5.77;3.00;;;;;;;16.26;64.19;95984.94;5025559;28;20175;-78
2022/05/19 03:12:48;;;;;;;4.40;2.63;;;;;;;16.25;64.22;95983.25;5023733;28;20198;-77
2022/05/19 03:15:14;;;;;;;4.55;3.00;;;;;;;16.14;64.51;95987.91;5019984;28;20175;-77
2022/05/19 03:17:39;;;;;;;4.37;3.23;;;;;;;16.20;63.97;95980.34;5019301;28;20714;-76
2022/05/19 03:20:06;;;;;;;3.70;2.70;;;;;;;16.26;63.80;95987.53;5002499;28;20230;-78
2022/05/19 03:22:32;;;;;;;4.77;2.60;;;;;;;16.30;63.64;95976.53;5019631;28;20210;-77
2022/05/19 03:24:57;;;;;;;3.83;2.88;;;;;;;16.29;63.42;95981.94;5031447;28;20187;-77
2022/05/19 03:27:22;;;;;;;4.88;2.92;;;;;;;16.24;63.38;95977.22;5034678;28;20203;-77
2022/05/19 03:29:49;;;;;;;7.40;3.03;;;;;;;16.24;63.23;95981.63;5032174;28;20187;-77
2022/05/19 03:32:14;;;;;;;4.53;2.70;;;;;;;16.34;62.81;95979.59;5033666;28;20190;-77
2022/05/19 03:34:39;;;;;;;3.40;3.10;;;;;;;16.37;62.67;95982.72;5034218;28;20178;-78
2022/05/19 03:37:06;;;;;;;3.23;2.67;;;;;;;16.39;62.42;95978.13;5018052;28;20213;-78
2022/05/19 03:39:31;;;;;;;3.67;2.30;;;;;;;16.34;62.39;95979.59;5020150;28;20195;-78
2022/05/19 03:41:57;;;;;;;4.25;2.78;;;;;;;16.38;62.42;95983.53;5033667;28;20253;-78
2022/05/19 03:44:22;;;;;;;2.95;2.67;;;;;;;16.40;62.26;95984.16;5017460;28;20178;-78
2022/05/19 03:46:47;;;;;;;3.72;2.80;;;;;;;16.43;62.06;95979.41;5017790;28;20617;-78
2022/05/19 03:49:13;;;;;;;2.72;2.45;;;;;;;16.50;61.91;95983.94;5033186;28;20183;-76
2022/05/19 03:51:40;;;;;;;2.90;2.30;;;;;;;16.38;61.99;95981.72;5014657;28;20559;-77
2022/05/19 03:54:05;;;;;;;3.67;2.30;;;;;;;16.43;61.72;95983.81;5033451;28;20627;-77
2022/05/19 03:56:30;;;;;;;3.70;2.70;;;;;;;16.61;60.68;95984.38;5031770;28;20233;-77
2022/05/19 03:58:55;;;;;;;4.90;2.30;;;;;;;16.61;59.98;95987.00;5013072;28;20668;-78
2022/05/19 04:01:21;;;;;;;2.38;2.17;;;;;;;16.84;59.54;95983.59;5033145;28;20178;-78
2022/05/19 04:03:47;;;;;;;2.92;2.63;;;;;;;16.99;58.71;95979.22;5017435;28;20187;-78
2022/05/19 04:06:12;;;;;;;2.30;2.10;;;;;;;17.21;57.65;95974.91;4995231;28;20213;-77
2022/05/19 04:08:38;;;;;;;2.40;2.20;;;;;;;17.11;57.86;95979.59;5016530;28;20172;-77
2022/05/19 04:11:04;;;;;;;3.08;2.17;;;;;;;17.27;57.46;95977.63;4998433;28;20183;-78
2022/05/19 04:13:29;;;;;;;2.58;2.15;;;;;;;17.33;57.13;95980.56;4998496;28;20184;-78
2022/05/19 04:15:54;;;;;;;4.78;2.67;;;;;;;17.43;56.42;95978.47;5002340;28;20203;-77
2022/05/19 04:18:20;;;;;;;2.67;2.40;;;;;;;17.47;56.64;95971.88;5003408;28;20190;-77
2022/05/19 04:20:45;;;;;;;2.67;2.40;;;;;;;17.58;56.49;95971.44;5018627;28;20206;-78
2022/05/19 04:23:11;;;;;;;3.10;2.42;;;;;;;17.61;55.91;95983.38;5004719;28;20185;-77
2022/05/19 04:25:37;;;;;;;2.65;2.42;;;;;;;17.55;56.39;95971.78;5034543;28;20201;-78
2022/05/19 04:28:02;;;;;;;2.35;2.15;;;;;;;17.76;55.40;95977.19;5040666;28;20647;-77
2022/05/19 04:30:28;;;;;;;3.85;2.40;;;;;;;17.69;55.79;95973.59;5042159;28;20208;-77
2022/05/19 04:32:54;;;;;;;2.00;1.90;;;;;;;18.09;54.44;95980.22;5039367;28;20183;-76
2022/05/19 04:35:19;;;;;;;2.95;1.92;;;;;;;18.77;52.57;95986.06;5018465;28;20600;-77
2022/05/19 04:37:45;;;;;;;3.72;2.05;;;;;;;19.44;50.57;95996.16;5037028;28;20195;-79
2022/05/19 04:40:11;;;;;;;3.85;2.20;;;;;;;19.85;48.86;96003.31;5013408;28;20203;-78
2022/05/19 04:42:37;;;;;;;1.88;1.77;;;;;;;20.41;47.30;96003.19;5023067;28;20209;-77
2022/05/19 04:45:03;;;;;;;2.67;2.05;;;;;;;20.63;46.58;96007.34;5016780;28;20186;-77
2022/05/19 04:47:28;;;;;;;3.15;2.17;;;;;;;21.59;43.95;95998.31;5037631;28;20209;-77
2022/05/19 04:49:54;;;;;;;2.83;2.08;;;;;;;20.79;45.96;96000.06;5025040;28;20544;-77
2022/05/19 04:52:20;;;;;;;4.97;2.97;;;;;;;20.44;46.46;96008.09;5020259;28;20188;-75
2022/05/19 04:54:46;;;;;;;3.38;1.77;;;;;;;20.45;46.58;96001.81;5004762;28;20261;-77
2022/05/19 04:57:11;;;;;;;2.25;2.05;;;;;;;20.32;47.05;96001.75;5016257;28;20203;-77
2022/05/19 04:59:37;;;;;;;5.05;1.83;;;;;;;20.33;45.99;96000.72;5024132;28;20280;-78
2022/05/19 05:02:03;;;;;;;3.55;1.77;;;;;;;20.31;47.08;96008.00;5040636;28;20559;-78
2022/05/19 05:04:30;;;;;;;2.90;2.00;;;;;;;20.32;46.90;96009.66;5021449;28;20678;-77
2022/05/19 05:06:55;;;;;;;4.50;2.03;;;;;;;20.84;45.44;96016.91;5016086;28;20253;-76
2022/05/19 05:09:21;;;;;;;3.97;2.03;;;;;;;20.34;46.84;96010.25;4996789;28;20202;-76
2022/05/19 05:11:46;;;;;;;2.42;2.20;;;;;;;20.20;47.14;96012.00;5012340;28;20195;-76
2022/05/19 05:14:11;;;;;;;1.70;1.60;;;;;;;20.95;45.70;96012.91;5031774;28;20199;-79
2022/05/19 05:16:37;;;;;;;2.38;1.80;;;;;;;21.47;44.20;96012.16;5018403;28;20199;-77
2022/05/19 05:19:04;;;;;;;3.40;1.67;;;;;;;22.48;41.64;96016.19;5018519;28;20194;-77
2022/05/19 05:21:29;;;;;;;1.63;1.48;;;;;;;22.73;40.60;96017.09;5034175;28;20214;-77
2022/05/19 05:23:55;;;;;;;4.95;1.83;;;;;;;23.38;39.73;96015.03;5015246;28;20219;-77
2022/05/19 05:26:20;;;;;;;2.17;1.65;;;;;;;23.97;38.00;96020.88;5003615;28;20716;-76
2022/05/19 05:28:45;;;;;;;2.13;1.58;;;;;;;24.19;37.37;96021.25;5027527;28;20199;-77
2022/05/19 05:31:10;;;;;;;1.73;1.58;;;;;;;25.21;35.44;96021.41;5033057;28;20178;-76
2022/05/19 05:33:37;;;;;;;1.83;1.70;;;;;;;25.32;35.35;96028.59;5008957;28;20653;-76
2022/05/19 05:36:02;;;;;;;2.45;1.80;;;;;;;25.58;34.36;96022.03;5006831;28;20281;-77
2022/05/19 05:38:28;;;;;;;2.90;1.58;;;;;;;25.64;34.82;96019.28;5037374;28;20256;-77
2022/05/19 05:40:54;;;;;;;2.65;2.20;;;;;;;25.61;34.34;96025.03;5033704;28;20187;-77
2022/05/19 05:43:20;;;;;;;2.28;2.08;;;;;;;26.59;33.12;96034.13;5019753;28;20211;-76
2022/05/19 05:45:46;;;;;;;3.35;1.58;;;;;;;27.44;31.82;96029.84;5035152;28;20282;-77
2022/05/19 05:48:12;;;;;;;1.58;1.48;;;;;;;28.46;30.38;96022.31;5013729;28;20183;-77
2022/05/19 05:50:38;;;;;;;3.28;1.60;;;;;;;27.85;31.63;96032.13;5020451;28;20233;-77
2022/05/19 05:53:04;;;;;;;2.55;1.70;;;;;;;28.85;29.72;96035.56;5020740;28;20187;-77
2022/05/19 05:55:30;;;;;;;1.70;1.60;;;;;;;28.29;29.89;96032.25;5020700;28;20210;-77
2022/05/19 05:57:55;;;;;;;3.40;1.60;;;;;;;28.82;29.19;96040.63;5024289;28;20176;-77
2022/05/19 06:00:21;;;;;;;2.15;1.50;;;;;;;28.22;29.57;96037.72;5021633;28;20236;-77
2022/05/19 06:02:48;;;;;;;2.08;1.85;;;;;;;27.33;30.77;96036.88;5010515;28;20226;-77
2022/05/19 06:05:14;;;;;;;1.83;1.58;;;;;;;28.11;29.61;96038.66;5002259;28;20183;-77
2022/05/19 06:07:39;;;;;;;2.33;1.70;;;;;;;29.45;28.70;96045.28;5003932;28;20211;-77
2022/05/19 06:10:05;;;;;;;2.85;1.73;;;;;;;29.92;27.34;96033.88;5008968;28;20643;-77
2022/05/19 06:12:31;;;;;;;3.08;1.50;;;;;;;29.72;27.75;96039.09;5039096;28;20202;-78
2022/05/19 06:14:56;;;;;;;2.45;1.30;;;;;;;30.92;26.12;96032.00;5026020;28;20195;-77
2022/05/19 06:17:23;;;;;;;6.55;2.03;;;;;;;31.62;25.42;96045.78;5028534;28;20578;-77
2022/05/19 06:19:49;;;;;;;8.57;2.75;;;;;;;31.12;25.70;96044.66;5015519;28;20282;-77
2022/05/19 06:22:14;;;;;;;5.63;1.90;;;;;;;31.84;25.73;96043.66;5002242;28;20195;-77
2022/05/19 06:24:40;;;;;;;2.38;1.73;;;;;;;30.65;26.66;96037.53;5020900;28;20209;-76
2022/05/19 06:27:05;;;;;;;1.92;1.60;;;;;;;29.97;28.08;96041.16;5033199;28;20256;-77
2022/05/19 06:29:31;;;;;;;3.15;1.80;;;;;;;29.88;28.47;96047.00;5011724;28;20262;-77
2022/05/19 06:31:56;;;;;;;3.05;1.80;;;;;;;30.61;27.60;96041.78;5024046;28;20186;-77
2022/05/19 06:34:22;;;;;;;3.40;1.73;;;;;;;31.15;26.88;96046.00;5027852;28;20249;-77
2022/05/19 06:36:47;;;;;;;3.35;1.75;;;;;;;31.51;26.48;96044.97;5023342;28;20749;-77
2022/05/19 06:39:14;;;;;;;2.47;1.88;;;;;;;31.02;27.67;96045.44;5003631;28;20199;-77
2022/05/19 06:44:23;;;;;;;2.67;2.00;;;;;;;31.06;27.04;96056.44;5013651;28;20189;-77
2022/05/19 06:46:48;;;;;;;2.20;1.88;;;;;;;30.50;28.95;96058.09;5023639;28;20285;-77
2022/05/19 06:49:14;;;;;;;3.33;2.63;;;;;;;30.50;28.93;96060.78;5040174;28;20179;-77
2022/05/19 06:51:39;;;;;;;3.65;2.20;;;;;;;31.60;26.83;96061.34;5022294;28;20259;-78
2022/05/19 06:54:05;;;;;;;2.22;2.03;;;;;;;31.83;26.94;96060.84;5024943;28;20194;-78
2022/05/19 06:56:30;;;;;;;3.10;2.08;;;;;;;31.75;27.30;96055.19;5005986;28;20198;-77
2022/05/19 06:58:56;;;;;;;4.35;2.20;;;;;;;32.92;25.67;96063.03;5032109;28;20206;-77
2022/05/19 07:01:21;;;;;;;2.75;2.20;;;;;;;32.67;25.84;96055.84;5030081;28;20193;-76
2022/05/19 07:03:47;;;;;;;4.32;2.10;;;;;;;32.18;27.59;96053.81;5013057;28;20194;-77
2022/05/19 07:06:12;;;;;;;2.25;2.00;;;;;;;32.91;26.02;96070.28;5030993;28;20210;-77
2022/05/19 07:08:39;;;;;;;2.38;2.17;;;;;;;31.96;27.38;96058.69;4991838;28;20274;-76
2022/05/19 07:11:05;;;;;;;2.97;2.25;;;;;;;32.03;27.96;96068.09;5006782;28;20175;-76
2022/05/19 07:13:31;;;;;;;2.85;2.13;;;;;;;31.49;28.65;96067.81;5011448;28;20191;-76
2022/05/19 07:15:56;;;;;;;3.20;2.20;;;;;;;33.34;26.09;96075.97;5011532;28;20201;-76
2022/05/19 07:18:21;;;;;;;3.03;2.10;;;;;;;33.26;26.25;96076.56;5011164;28;20272;-76
2022/05/19 07:20:48;;;;;;;4.20;2.10;;;;;;;33.34;26.05;96070.59;5015513;28;20189;-76
2022/05/19 07:23:24;;;;;;;2.13;1.85;;;;;;;34.65;24.16;96072.44;5010851;28;20720;-76
2022/05/19 07:25:50;;;;;;;4.00;2.20;;;;;;;34.50;25.12;96075.31;5021665;28;20214;-76
2022/05/19 07:28:18;;;;;;;3.13;2.42;;;;;;;33.52;26.69;96083.41;5012556;28;20179;-76
2022/05/19 07:30:46;;;;;;;3.67;2.25;;;;;;;32.56;27.96;96075.78;4996186;28;20576;-77
2022/05/19 07:33:11;;;;;;;5.88;2.72;;;;;;;31.68;28.41;96073.44;5028830;28;20197;-75
2022/05/19 07:35:37;;;;;;;5.38;2.97;;;;;;;33.52;26.60;96086.09;5027702;28;20591;-77
2022/05/19 07:38:02;;;;;;;8.65;3.17;;;;;;;31.57;28.99;96080.69;5012612;28;20552;-77
2022/05/19 07:40:28;;;;;;;4.80;2.10;;;;;;;32.32;26.88;96073.69;5010429;28;20248;-76
2022/05/19 07:42:53;;;;;;;4.32;2.13;;;;;;;32.22;27.57;96073.69;5026109;28;20183;-76
2022/05/19 07:45:22;;;;;;;5.00;2.22;;;;;;;31.93;28.71;96080.72;5014388;28;20202;-77
2022/05/19 07:47:47;;;;;;;2.90;2.40;;;;;;;30.88;30.95;96079.19;5017870;28;20179;-77
2022/05/19 07:50:12;;;;;;;4.40;2.38;;;;;;;30.24;31.93;96089.28;5029313;28;20225;-77
2022/05/19 07:52:39;;;;;;;5.72;2.50;;;;;;;29.89;32.46;96078.06;5032266;28;20659;-77
2022/05/19 07:55:05;;;;;;;2.53;2.33;;;;;;;29.46;33.42;96083.53;5014517;28;20232;-77
2022/05/19 07:57:30;;;;;;;5.43;2.50;;;;;;;29.52;33.25;96083.38;5013195;28;20191;-77
2022/05/19 07:59:56;;;;;;;2.90;2.60;;;;;;;29.73;33.06;96084.34;4996711;28;20210;-77
2022/05/19 08:02:21;;;;;;;4.32;2.50;;;;;;;29.99;32.47;96087.22;5015846;28;20191;-77
2022/05/19 08:04:47;;;;;;;3.03;2.40;;;;;;;29.67;32.96;96081.88;5007769;28;20175;-77
2022/05/19 08:07:12;;;;;;;3.80;2.35;;;;;;;29.76;31.91;96083.81;5032493;28;20195;-77
2022/05/19 08:17:55;;;;;;;2.58;2.25;;;;;;;29.28;33.74;96080.16;5023090;28;20262;-78
2022/05/19 08:20:21;;;;;;;5.95;2.60;;;;;;;29.68;33.71;96088.84;5007367;28;20211;-78
2022/05/19 08:22:46;;;;;;;2.53;2.33;;;;;;;29.06;34.06;96080.19;5040254;28;20190;-78
2022/05/19 08:25:13;;;;;;;3.63;2.47;;;;;;;28.08;35.75;96087.16;5025217;28;20195;-77
2022/05/19 08:27:39;;;;;;;3.97;2.58;;;;;;;28.19;35.81;96088.16;5009584;28;20590;-78
2022/05/19 08:30:05;;;;;;;2.75;2.55;;;;;;;27.32;36.90;96081.41;5027848;28;20183;-77
2022/05/19 08:32:30;;;;;;;6.82;2.42;;;;;;;27.98;35.78;96081.69;5038006;28;20182;-78
2022/05/19 08:34:55;;;;;;;2.80;2.40;;;;;;;27.69;37.02;96088.97;5039241;28;20228;-77
2022/05/19 08:37:21;;;;;;;2.97;2.60;;;;;;;26.73;38.20;96078.13;5012829;28;20207;-77
2022/05/19 08:39:46;;;;;;;2.50;2.30;;;;;;;27.33;38.07;96083.00;5009289;28;20200;-78
2022/05/19 08:42:13;;;;;;;3.15;2.45;;;;;;;27.82;36.39;96085.16;5030061;28;20178;-78
2022/05/19 08:44:41;;;;;;;4.88;2.50;;;;;;;28.28;36.38;96092.03;5026988;28;20190;-76
2022/05/19 08:47:09;;;;;;;2.63;2.20;;;;;;;27.73;35.97;96089.28;5043705;28;20208;-76
2022/05/19 08:49:44;;;;;;;3.17;2.30;;;;;;;27.78;36.55;96090.19;5014085;28;20274;-76
2022/05/19 08:52:12;;;;;;;2.28;2.08;;;;;;;27.27;37.30;96083.16;5016155;28;20209;-76
2022/05/19 08:54:39;;;;;;;4.57;2.30;;;;;;;27.44;36.09;96080.53;5017768;28;20175;-77
2022/05/19 08:57:09;;;;;;;2.55;2.33;;;;;;;26.72;37.38;96073.03;5031991;28;20218;-77
2022/05/19 08:59:54;;;;;;;2.75;2.50;;;;;;;26.32;38.65;96078.28;5015773;28;20210;-76
2022/05/19 09:02:25;;;;;;;2.92;2.22;;;;;;;26.88;37.37;96084.81;5030687;28;20197;-77
2022/05/19 09:05:09;;;;;;;3.50;2.25;;;;;;;27.13;37.32;96081.84;5002306;28;20191;-77
2022/05/19 09:07:56;;;;;;;3.88;2.30;;;;;;;26.56;39.06;96074.56;5036162;28;20234;-77
2022/05/19 09:10:37;;;;;;;4.03;2.20;;;;;;;26.87;37.30;96085.84;5042895;28;20184;-76
2022/05/19 09:13:17;;;;;;;3.47;2.60;;;;;;;27.07;38.45;96083.59;5042408;28;20198;-75
2022/05/19 09:15:45;;;;;;;2.80;2.20;;;;;;;27.42;37.47;96088.75;5030894;28;20198;-76
2022/05/19 09:18:13;;;;;;;3.25;2.50;;;;;;;27.37;37.66;96097.47;5039181;28;20225;-75
2022/05/19 09:20:44;;;;;;;3.22;2.45;;;;;;;27.54;37.13;96086.03;5055716;28;20198;-76
2022/05/19 09:23:10;;;;;;;4.72;2.47;;;;;;;28.14;37.38;96094.22;5054878;28;20210;-76
2022/05/19 09:25:39;;;;;;;6.82;2.72;;;;;;;28.16;36.83;96089.44;5006628;28;20218;-77
2022/05/19 09:28:04;;;;;;;3.42;2.67;;;;;;;28.59;37.26;96095.13;5038415;28;20197;-77
2022/05/19 09:30:53;;;;;;;3.80;2.85;;;;;;;28.77;37.02;96092.13;5032621;28;20171;-78
2022/05/19 09:33:23;;;;;;;3.22;2.60;;;;;;;28.93;36.62;96101.19;5008255;28;20648;-78
2022/05/19 09:35:54;;;;;;;6.43;2.83;;;;;;;28.70;36.98;96099.53;5038484;28;20202;-78
2022/05/19 09:38:47;;;;;;;4.63;2.70;;;;;;;28.65;36.44;96094.13;5025135;28;20183;-78
2022/05/19 09:41:21;;;;;;;3.33;2.55;;;;;;;28.45;37.87;96094.69;4995205;28;20199;-78
2022/05/19 09:43:51;;;;;;;3.95;2.70;;;;;;;28.23;37.52;96100.75;5018863;28;20188;-77
2022/05/19 09:46:17;;;;;;;4.20;2.53;;;;;;;28.46;38.15;96093.63;5016703;28;20198;-76
2022/05/19 09:49:03;;;;;;;4.47;2.63;;;;;;;28.60;37.61;96107.41;5016693;28;20601;-78
2022/05/19 09:51:39;;;;;;;7.70;2.67;;;;;;;28.92;36.80;96097.69;5017248;28;20187;-77
2022/05/19 09:54:04;;;;;;;5.03;2.90;;;;;;;28.08;39.01;96084.50;5003726;28;20204;-77
2022/05/19 09:56:51;;;;;;;3.42;3.13;;;;;;;28.60;38.18;96097.53;5009957;28;20231;-77
2022/05/19 09:59:20;;;;;;;5.80;3.13;;;;;;;28.46;37.80;96089.09;5025831;28;20582;-76
2022/05/19 10:01:48;;;;;;;5.05;2.60;;;;;;;28.62;38.77;96092.75;5022602;28;20186;-77
2022/05/19 10:04:18;;;;;;;4.35;2.53;;;;;;;28.97;37.31;96086.25;5024268;28;20206;-78
2022/05/19 10:06:57;;;;;;;5.15;2.83;;;;;;;29.31;37.29;96092.22;5026691;28;20194;-77
2022/05/19 10:09:46;;;;;;;2.90;2.63;;;;;;;29.37;37.40;96082.38;5027342;28;20202;-77
2022/05/19 10:12:14;;;;;;;3.45;2.85;;;;;;;29.54;36.97;96083.91;5021071;28;20656;-77
2022/05/19 10:14:41;;;;;;;6.93;2.90;;;;;;;29.64;37.05;96077.03;5024080;28;20174;-77
2022/05/19 10:17:21;;;;;;;5.13;3.22;;;;;;;29.83;35.87;96083.63;5037077;28;20198;-77
2022/05/19 10:20:10;;;;;;;5.20;2.92;;;;;;;29.61;36.02;96078.38;5016243;28;20194;-77
2022/05/19 10:22:53;;;;;;;3.60;3.00;;;;;;;29.67;36.82;96071.97;5011549;28;20179;-77
2022/05/19 10:25:43;;;;;;;6.35;3.00;;;;;;;29.41;37.01;96070.91;5024666;28;20574;-77
2022/05/19 10:31:22;;;;;;;4.45;2.88;;;;;;;29.34;38.05;96065.78;5008284;28;20221;-77
2022/05/19 10:34:04;;;;;;;4.32;3.28;;;;;;;29.32;37.82;96064.41;5032992;28;20286;-76
2022/05/19 10:36:54;;;;;;;4.38;3.22;;;;;;;29.51;37.49;96068.38;5005348;28;20223;-76
2022/05/19 10:39:50;;;;;;;7.88;3.45;;;;;;;29.44;36.25;96058.91;5001291;28;20266;-77
2022/05/19 10:42:41;;;;;;;6.72;2.95;;;;;;;29.58;36.96;96057.44;4992849;28;20202;-78
2022/05/19 10:45:21;;;;;;;4.65;3.00;;;;;;;29.84;35.74;96053.91;4982739;28;20281;-77
2022/05/19 10:48:24;;;;;;;5.35;2.90;;;;;;;30.00;34.59;96057.50;5031735;28;20209;-77
2022/05/19 10:50:57;;;;;;;4.13;3.00;;;;;;;29.79;35.61;96059.25;5016307;28;20183;-77
2022/05/19 10:53:42;;;;;;;7.28;3.42;;;;;;;30.42;34.28;96052.16;5008946;28;21028;-77
2022/05/19 10:56:39;;;;;;;4.32;3.00;;;;;;;30.94;33.07;96045.94;5008718;28;20214;-77
2022/05/19 10:59:26;;;;;;;5.50;2.55;;;;;;;30.72;32.88;96043.47;5026323;28;20198;-78
2022/05/19 11:02:06;;;;;;;4.00;2.53;;;;;;;30.71;31.13;96039.16;4994252;28;20175;-77
2022/05/19 11:04:49;;;;;;;4.07;2.65;;;;;;;30.96;30.63;96030.41;5018610;28;20270;-79
2022/05/19 11:07:29;;;;;;;7.15;3.05;;;;;;;31.14;31.34;96036.34;5023366;28;20207;-77
2022/05/19 11:10:22;;;;;;;3.45;2.63;;;;;;;31.27;31.68;96030.47;5021181;28;20186;-77
2022/05/19 11:12:50;;;;;;;2.75;2.40;;;;;;;31.33;29.95;96033.97;5030560;28;20679;-78
2022/05/19 11:15:30;;;;;;;7.28;3.22;;;;;;;30.87;31.99;96036.53;5030572;28;20195;-78
2022/05/19 11:18:02;;;;;;;3.45;2.70;;;;;;;30.86;32.06;96033.06;5014583;28;20419;-78
2022/05/19 11:20:53;;;;;;;4.25;3.30;;;;;;;30.77;31.18;96031.16;5018443;28;20205;-78
2022/05/19 11:23:24;;;;;;;10.80;3.05;;;;;;;31.32;31.96;96029.69;5025856;28;20183;-79
2022/05/19 11:26:23;;;;;;;5.78;3.05;;;;;;;31.36;31.56;96039.59;5042034;28;20754;-78
2022/05/19 11:29:14;;;;;;;4.43;2.47;;;;;;;30.90;30.64;96025.28;5027514;28;20179;-78
2022/05/19 11:31:45;;;;;;;5.57;3.55;;;;;;;30.02;32.94;96031.28;4993320;28;20222;-77
2022/05/19 11:34:28;;;;;;;4.82;3.30;;;;;;;30.11;33.69;96027.06;5021536;28;20209;-78
2022/05/19 11:36:58;;;;;;;8.25;3.17;;;;;;;29.95;33.51;96032.56;5007603;28;20199;-78
2022/05/19 11:39:39;;;;;;;4.70;2.72;;;;;;;30.06;33.34;96036.94;5029448;28;20320;-78
2022/05/19 11:42:31;;;;;;;6.20;3.25;;;;;;;30.07;34.17;96034.03;5024865;28;20182;-79
2022/05/19 11:44:57;;;;;;;3.75;2.60;;;;;;;29.51;34.26;96025.56;5038983;28;20198;-78
2022/05/19 11:56:16;;;;;;;6.97;3.00;;;;;;;30.31;33.97;96028.25;5038911;28;20742;-78
2022/05/19 11:58:42;;;;;;;5.15;3.17;;;;;;;30.23;33.56;96026.06;5021244;28;20182;-77
2022/05/19 12:01:13;;;;;;;5.70;3.22;;;;;;;30.54;33.52;96019.78;5022924;28;20179;-77
2022/05/19 12:03:45;;;;;;;21.27;3.50;;;;;;;30.12;34.29;96023.31;5008151;28;20242;-78
2022/05/19 12:06:12;;;;;;;3.55;3.00;;;;;;;30.04;35.84;96020.28;5040028;28;20253;-78
2022/05/19 12:08:52;;;;;;;5.57;3.60;;;;;;;29.98;35.21;96014.13;5025847;28;20186;-78
2022/05/19 12:11:21;;;;;;;5.78;3.20;;;;;;;29.61;36.19;96017.63;5013304;28;20171;-78